createdAt,value
2023-02-14T00:00:34.598Z,100190.20
2023-02-14T00:03:05.042Z,100195.60
2023-02-14T00:05:36.099Z,100196.29
2023-02-14T00:08:06.583Z,100196.44
2023-02-14T00:10:36.924Z,100195.98
2023-02-14T00:13:07.253Z,100193.94
2023-02-14T00:15:37.732Z,100194.10
2023-02-14T00:18:08.141Z,100193.49
2023-02-14T00:20:38.519Z,100190.78
2023-02-14T00:23:08.927Z,100192.98
2023-02-14T00:25:39.366Z,100190.45
2023-02-14T00:28:09.729Z,100191.05
2023-02-14T00:30:40.322Z,100193.16
2023-02-14T00:33:10.675Z,100194.31
2023-02-14T00:35:41.724Z,100178.86
2023-02-14T00:38:12.113Z,100190.73
2023-02-14T00:40:43.464Z,100187.68
2023-02-14T00:43:13.790Z,100185.98
2023-02-14T00:45:44.147Z,100190.48
2023-02-14T00:48:15.156Z,100192.02
2023-02-14T00:50:46.294Z,100193.65
2023-02-14T00:53:17.035Z,100194.48
2023-02-14T00:55:48.524Z,100193.35
2023-02-14T00:58:18.842Z,100187.15
2023-02-14T01:00:49.302Z,100184.27
2023-02-14T01:03:19.807Z,100182.52
2023-02-14T01:05:51.286Z,100184.31
2023-02-14T01:08:22.222Z,100181.52
2023-02-14T01:10:52.906Z,100186.50
2023-02-14T01:13:23.474Z,100183.98
2023-02-14T01:15:54.042Z,100182.40
2023-02-14T01:18:24.374Z,100177.90
2023-02-14T01:20:54.852Z,100181.38
2023-02-14T01:23:25.146Z,100182.61
2023-02-14T01:25:55.844Z,100184.58
2023-02-14T01:28:26.284Z,100181.58
2023-02-14T01:30:56.735Z,100182.18
2023-02-14T01:33:27.236Z,100183.09
2023-02-14T01:35:58.522Z,100184.75
2023-02-14T01:38:28.888Z,100183.21
2023-02-14T01:41:00.061Z,100178.66
2023-02-14T01:43:30.714Z,100180.00
2023-02-14T01:46:01.222Z,100179.40
2023-02-14T01:48:31.619Z,100181.38
2023-02-14T01:51:02.202Z,100180.86
2023-02-14T01:53:32.918Z,100176.23
2023-02-14T01:56:08.125Z,100177.44
2023-02-14T01:58:40.629Z,100182.75
2023-02-14T02:01:11.067Z,100186.98
2023-02-14T02:03:43.825Z,100186.93
2023-02-14T02:06:17.902Z,100185.75
2023-02-14T02:08:51.952Z,100184.98
2023-02-14T02:11:22.279Z,100184.61
2023-02-14T02:13:52.662Z,100181.92
2023-02-14T02:16:37.528Z,100180.11
2023-02-14T02:19:36.097Z,100180.47
2023-02-14T02:22:43.332Z,100179.02
2023-02-14T02:25:21.860Z,100178.38
2023-02-14T02:28:12.774Z,100177.36
2023-02-14T02:30:59.142Z,100171.63
2023-02-14T02:34:07.356Z,100167.30
2023-02-14T02:36:53.892Z,100160.86
2023-02-14T02:39:50.328Z,100158.67
2023-02-14T02:42:28.558Z,100157.14
2023-02-14T02:45:03.992Z,100151.14
2023-02-14T02:47:37.050Z,100149.08
2023-02-14T02:50:33.799Z,100152.52
2023-02-14T02:53:08.158Z,100149.29
2023-02-14T02:56:02.504Z,100147.81
2023-02-14T02:58:38.362Z,100145.29
2023-02-14T03:01:12.685Z,100147.73
2023-02-14T03:04:03.031Z,100147.56
2023-02-14T03:06:34.381Z,100146.77
2023-02-14T03:09:17.545Z,100149.36
2023-02-14T03:11:47.707Z,100146.43
2023-02-14T03:14:22.092Z,100146.67
2023-02-14T03:17:02.792Z,100150.90
2023-02-14T03:20:02.619Z,100151.38
2023-02-14T03:22:46.828Z,100151.59
2023-02-14T03:25:23.997Z,100152.39
2023-02-14T03:27:58.925Z,100153.39
2023-02-14T03:30:42.173Z,100152.17
2023-02-14T03:33:18.083Z,100154.99
2023-02-14T03:35:52.527Z,100150.98
2023-02-14T03:38:26.532Z,100150.20
2023-02-14T03:40:59.912Z,100145.37
2023-02-14T03:43:34.310Z,100147.13
2023-02-14T03:46:08.480Z,100151.23
2023-02-14T03:48:40.993Z,100153.55
2023-02-14T03:51:13.287Z,100153.30
2023-02-14T03:53:46.015Z,100156.09
2023-02-14T03:56:18.621Z,100158.45
2023-02-14T03:58:51.061Z,100162.44
2023-02-14T04:01:22.750Z,100159.34
2023-02-14T04:03:55.010Z,100160.95
2023-02-14T04:06:25.622Z,100163.33
2023-02-14T04:08:56.061Z,100167.52
2023-02-14T04:11:26.463Z,100164.64
2023-02-14T04:13:56.875Z,100166.48
2023-02-14T04:16:27.422Z,100165.34
2023-02-14T04:19:14.994Z,100166.70
2023-02-14T04:21:45.248Z,100163.73
2023-02-14T04:24:15.516Z,100164.80
2023-02-14T04:26:54.058Z,100162.73
2023-02-14T04:29:24.447Z,100163.14
2023-02-14T04:31:54.861Z,100163.21
2023-02-14T04:34:25.514Z,100161.05
2023-02-14T04:36:55.887Z,100160.84
2023-02-14T04:39:26.508Z,100160.11
2023-02-14T04:41:56.890Z,100160.83
2023-02-14T04:44:27.207Z,100160.35
2023-02-14T04:46:57.625Z,100162.84
2023-02-14T04:49:28.063Z,100166.13
2023-02-14T04:51:58.418Z,100166.46
2023-02-14T04:54:28.817Z,100171.80
2023-02-14T04:56:59.075Z,100173.21
2023-02-14T04:59:29.547Z,100172.73
2023-02-14T05:01:59.940Z,100168.39
2023-02-14T05:04:30.345Z,100167.31
2023-02-14T05:07:00.902Z,100165.91
2023-02-14T05:09:31.384Z,100166.05
2023-02-14T05:12:01.638Z,100170.73
2023-02-14T05:14:31.931Z,100170.62
2023-02-14T05:17:02.225Z,100170.15
2023-02-14T05:19:32.834Z,100168.84
2023-02-14T05:22:03.131Z,100170.71
2023-02-14T05:24:33.721Z,100170.48
2023-02-14T05:27:04.065Z,100167.55
2023-02-14T05:29:34.525Z,100174.02
2023-02-14T05:32:05.077Z,100174.13
2023-02-14T05:34:35.870Z,100168.13
2023-02-14T05:37:06.183Z,100168.63
2023-02-14T05:39:36.638Z,100164.05
2023-02-14T05:42:07.019Z,100160.38
2023-02-14T05:44:37.476Z,100164.35
2023-02-14T05:47:07.859Z,100165.42
2023-02-14T05:49:38.567Z,100166.38
2023-02-14T05:52:09.231Z,100165.15
2023-02-14T05:54:39.776Z,100165.99
2023-02-14T05:57:10.089Z,100163.09
2023-02-14T05:59:40.479Z,100163.06
2023-02-14T06:02:11.032Z,100161.92
2023-02-14T06:04:41.553Z,100164.23
2023-02-14T06:07:11.863Z,100158.71
2023-02-14T06:09:42.903Z,100161.77
2023-02-14T06:12:13.179Z,100164.93
2023-02-14T06:14:45.017Z,100164.39
2023-02-14T06:17:15.320Z,100164.68
2023-02-14T06:19:45.644Z,100166.31
2023-02-14T06:22:16.124Z,100162.87
2023-02-14T06:24:46.456Z,100167.39
2023-02-14T06:27:16.874Z,100165.60
2023-02-14T06:29:47.283Z,100168.77
2023-02-14T06:32:17.887Z,100170.80
2023-02-14T06:34:48.262Z,100171.17
2023-02-14T06:37:20.037Z,100173.00
2023-02-14T06:39:50.444Z,100172.84
2023-02-14T06:42:20.792Z,100168.52
2023-02-14T06:44:51.125Z,100169.14
2023-02-14T06:47:21.748Z,100169.05
2023-02-14T06:49:52.043Z,100169.91
2023-02-14T06:52:22.500Z,100172.48
2023-02-14T06:54:52.814Z,100166.93
2023-02-14T06:57:23.122Z,100167.11
2023-02-14T06:59:53.309Z,100167.30
2023-02-14T07:02:25.128Z,100161.27
2023-02-14T07:04:55.520Z,100165.95
2023-02-14T07:07:25.727Z,100164.05
2023-02-14T07:09:56.177Z,100164.15
2023-02-14T07:12:26.373Z,100165.83
2023-02-14T07:14:56.756Z,100167.11
2023-02-14T07:17:27.074Z,100167.14
2023-02-14T07:19:57.243Z,100162.69
2023-02-14T07:22:29.497Z,100165.41
2023-02-14T07:25:00.606Z,100169.49
2023-02-14T07:27:30.846Z,100169.00
2023-02-14T07:30:01.082Z,100171.21
2023-02-14T07:32:31.325Z,100175.80
2023-02-14T07:35:01.488Z,100173.49
2023-02-14T07:37:32.545Z,100178.00
2023-02-14T07:40:02.896Z,100177.46
2023-02-14T07:42:33.179Z,100177.77
2023-02-14T07:45:15.826Z,100177.98
2023-02-14T07:47:51.992Z,100179.63
2023-02-14T07:50:23.311Z,100178.54
2023-02-14T07:52:53.796Z,100178.07
2023-02-14T07:55:25.342Z,100180.81
2023-02-14T07:57:55.636Z,100179.21
2023-02-14T08:00:26.605Z,100177.66
2023-02-14T08:02:57.305Z,100179.15
2023-02-14T08:05:27.935Z,100178.32
2023-02-14T08:07:58.286Z,100174.30
2023-02-14T08:10:28.692Z,100172.67
2023-02-14T08:13:03.449Z,100176.05
2023-02-14T08:15:53.228Z,100175.00
2023-02-14T08:18:24.411Z,100173.27
2023-02-14T08:20:54.906Z,100174.78
2023-02-14T08:23:25.668Z,100169.42
2023-02-14T08:25:56.015Z,100172.31
2023-02-14T08:28:26.754Z,100173.86
2023-02-14T08:30:57.987Z,100175.20
2023-02-14T08:33:29.208Z,100176.48
2023-02-14T08:36:00.150Z,100170.16
2023-02-14T08:38:31.231Z,100174.11
2023-02-14T08:41:08.048Z,100175.03
2023-02-14T08:43:39.148Z,100172.61
2023-02-14T08:46:09.483Z,100171.68
2023-02-14T08:48:39.929Z,100172.50
2023-02-14T08:51:12.310Z,100173.96
2023-02-14T08:53:43.585Z,100165.45
2023-02-14T08:56:15.373Z,100166.08
2023-02-14T08:58:45.638Z,100168.28
2023-02-14T09:01:17.895Z,100168.31
2023-02-14T09:03:48.233Z,100166.59
2023-02-14T09:06:19.162Z,100163.52
2023-02-14T09:08:49.757Z,100161.60
2023-02-14T09:11:22.129Z,100163.47
2023-02-14T09:13:54.046Z,100164.62
2023-02-14T09:16:26.371Z,100165.91
2023-02-14T09:18:56.830Z,100163.71
2023-02-14T09:21:28.589Z,100164.42
2023-02-14T09:23:59.289Z,100163.45
2023-02-14T09:26:29.661Z,100163.25
2023-02-14T09:29:00.031Z,100165.52
2023-02-14T09:31:30.975Z,100164.09
2023-02-14T09:34:18.966Z,100163.25
2023-02-14T09:37:06.873Z,100159.73
2023-02-14T09:39:38.589Z,100158.73
2023-02-14T09:42:21.271Z,100158.89
2023-02-14T09:44:55.071Z,100153.64
2023-02-14T09:47:32.002Z,100157.55
2023-02-14T09:50:03.431Z,100152.80
2023-02-14T09:52:34.046Z,100153.80
2023-02-14T09:55:05.863Z,100147.85
2023-02-14T09:57:42.878Z,100154.77
2023-02-14T10:00:21.972Z,100157.45
2023-02-14T10:03:05.680Z,100151.27
2023-02-14T10:05:39.283Z,100155.19
2023-02-14T10:08:22.971Z,100158.61
2023-02-14T10:11:03.663Z,100160.77
2023-02-14T10:13:36.470Z,100158.70
2023-02-14T10:16:06.452Z,100156.52
2023-02-14T10:18:44.193Z,100160.41
2023-02-14T10:21:17.378Z,100160.23
2023-02-14T10:23:52.382Z,100160.95
2023-02-14T10:26:27.470Z,100162.98
2023-02-14T10:28:58.358Z,100160.95
2023-02-14T10:31:32.275Z,100151.42
2023-02-14T10:34:09.023Z,100158.27
2023-02-14T10:36:49.213Z,100154.91
2023-02-14T10:39:31.996Z,100153.70
2023-02-14T10:42:08.125Z,100148.84
2023-02-14T10:44:46.580Z,100144.38
2023-02-14T10:47:31.150Z,100146.98
2023-02-14T10:50:09.984Z,100143.09
2023-02-14T10:52:45.046Z,100141.67
2023-02-14T10:55:31.927Z,100136.48
2023-02-14T10:58:06.026Z,100135.73
2023-02-14T11:00:40.036Z,100138.30
2023-02-14T11:03:14.038Z,100137.05
2023-02-14T11:05:48.037Z,100132.05
2023-02-14T11:08:26.645Z,100132.81
2023-02-14T11:11:01.429Z,100129.55
2023-02-14T11:13:36.309Z,100121.86
2023-02-14T11:16:09.848Z,100122.04
2023-02-14T11:18:42.625Z,100116.73
2023-02-14T11:21:18.091Z,100113.55
2023-02-14T11:23:53.113Z,100107.85
2023-02-14T11:26:27.214Z,100102.94
2023-02-14T11:29:02.084Z,100101.20
2023-02-14T11:31:37.211Z,100101.24
2023-02-14T11:34:17.230Z,100097.13
2023-02-14T11:44:22.143Z,100087.27
2023-02-14T11:46:54.422Z,100089.70
2023-02-14T11:49:44.200Z,100086.83
2023-02-14T11:52:26.798Z,100078.04
2023-02-14T11:54:58.922Z,100073.71
2023-02-14T11:57:33.066Z,100073.70
2023-02-14T12:00:06.194Z,100074.02
2023-02-14T12:02:44.608Z,100072.95
2023-02-14T12:05:21.546Z,100069.48
2023-02-14T12:07:52.869Z,100068.05
2023-02-14T12:10:26.496Z,100061.53
2023-02-14T12:12:59.320Z,100067.64
2023-02-14T12:15:40.950Z,100063.71
2023-02-14T12:18:37.048Z,100050.73
2023-02-14T12:21:15.968Z,100051.84
2023-02-14T12:23:51.642Z,100050.16
2023-02-14T12:26:27.723Z,100044.54
2023-02-14T12:29:05.361Z,100038.05
2023-02-14T12:31:35.883Z,100043.17
2023-02-14T12:34:07.475Z,100046.84
2023-02-14T12:37:02.120Z,100040.80
2023-02-14T12:39:39.178Z,100037.66
2023-02-14T12:42:19.096Z,100039.85
2023-02-14T12:44:59.047Z,100040.14
2023-02-14T12:47:36.243Z,100034.07
2023-02-14T12:50:16.721Z,100031.45
2023-02-14T12:53:06.122Z,100025.52
2023-02-14T12:55:44.991Z,100022.26
2023-02-14T12:58:23.345Z,100019.61
2023-02-14T13:01:01.925Z,100015.10
2023-02-14T13:03:44.629Z,100016.39
2023-02-14T13:06:20.275Z,100013.71
2023-02-14T13:09:11.246Z,100008.20
2023-02-14T13:11:48.492Z,100003.64
2023-02-14T13:14:32.625Z,99998.14
2023-02-14T13:17:08.835Z,99996.27
2023-02-14T13:19:46.034Z,99992.85
2023-02-14T13:22:19.265Z,99989.78
2023-02-14T13:24:51.636Z,99983.89
2023-02-14T13:27:24.355Z,99977.16
2023-02-14T13:29:57.479Z,99978.46
2023-02-14T13:32:29.751Z,99974.73
2023-02-14T13:35:00.700Z,99974.38
2023-02-14T13:37:32.200Z,99969.25
2023-02-14T13:40:05.793Z,99971.58
2023-02-14T13:42:55.088Z,99973.59
2023-02-14T13:45:59.514Z,99972.61
2023-02-14T13:48:30.931Z,99969.29
2023-02-14T13:51:03.575Z,99968.93
2023-02-14T13:53:37.740Z,99968.28
2023-02-14T13:56:23.513Z,99970.12
2023-02-14T13:58:55.926Z,99967.01
2023-02-14T14:01:35.735Z,99965.04
2023-02-14T14:04:08.315Z,99962.27
2023-02-14T14:07:14.479Z,99958.55
2023-02-14T14:10:05.416Z,99961.30
2023-02-14T14:12:45.466Z,99960.15
2023-02-14T14:15:18.906Z,99955.64
2023-02-14T14:18:06.630Z,99956.03
2023-02-14T14:20:45.329Z,99953.02
2023-02-14T14:23:38.585Z,99952.14
2023-02-14T14:26:34.726Z,99952.00
2023-02-14T14:29:11.800Z,99951.89
2023-02-14T14:31:43.124Z,99949.98
2023-02-14T14:34:19.949Z,99950.45
2023-02-14T14:36:50.684Z,99944.35
2023-02-14T14:39:32.290Z,99942.39
2023-02-14T14:42:10.195Z,99939.02
2023-02-14T14:44:47.776Z,99937.40
2023-02-14T14:47:20.619Z,99934.52
2023-02-14T14:49:51.110Z,99934.15
2023-02-14T14:52:39.621Z,99936.05
2023-02-14T14:55:15.296Z,99933.27
2023-02-14T14:57:52.072Z,99929.39
2023-02-14T15:00:28.938Z,99927.77
2023-02-14T15:03:05.499Z,99924.85
2023-02-14T15:05:38.209Z,99922.17
2023-02-14T15:08:21.003Z,99918.36
2023-02-14T15:10:54.283Z,99908.36
2023-02-14T15:13:48.238Z,99906.10
2023-02-14T15:16:21.252Z,99902.75
2023-02-14T15:18:53.748Z,99902.79
2023-02-14T15:21:24.405Z,99903.09
2023-02-14T15:23:55.207Z,99900.69
2023-02-14T15:26:28.618Z,99901.14
2023-02-14T15:29:01.694Z,99899.36
2023-02-14T15:31:34.513Z,99902.92
2023-02-14T15:34:05.941Z,99905.41
2023-02-14T15:36:39.170Z,99907.77
2023-02-14T15:39:12.006Z,99906.33
2023-02-14T15:41:46.615Z,99906.67
2023-02-14T15:44:22.822Z,99891.15
2023-02-14T15:46:56.793Z,99896.33
2023-02-14T15:49:33.903Z,99897.52
2023-02-14T15:52:06.312Z,99896.05
2023-02-14T15:54:39.619Z,99890.65
2023-02-14T15:57:20.095Z,99886.00
2023-02-14T15:59:50.590Z,99885.19
2023-02-14T16:02:31.117Z,99886.11
2023-02-14T16:05:09.108Z,99886.98
2023-02-14T16:07:39.531Z,99886.79
2023-02-14T16:10:27.122Z,99886.72
2023-02-14T16:13:00.135Z,99883.10
2023-02-14T16:15:32.799Z,99882.20
2023-02-14T16:18:08.138Z,99888.39
2023-02-14T16:20:46.893Z,99894.82
2023-02-14T16:23:20.098Z,99891.19
2023-02-14T16:25:49.003Z,99891.56
2023-02-14T16:28:19.551Z,99899.19
2023-02-14T16:30:55.822Z,99900.59
2023-02-14T16:33:28.482Z,99905.27
2023-02-14T16:36:06.206Z,99902.95
2023-02-14T16:38:43.396Z,99899.48
2023-02-14T16:41:18.828Z,99896.27
2023-02-14T16:43:50.135Z,99895.58
2023-02-14T16:46:22.938Z,99899.27
2023-02-14T16:48:53.537Z,99902.75
2023-02-14T16:51:25.168Z,99899.69
2023-02-14T16:53:55.960Z,99897.73
2023-02-14T16:56:29.649Z,99899.14
2023-02-14T16:59:00.227Z,99894.73
2023-02-14T17:01:32.215Z,99892.55
2023-02-14T17:04:02.666Z,99893.42
2023-02-14T17:06:34.911Z,99894.19
2023-02-14T17:09:08.221Z,99897.17
2023-02-14T17:11:40.990Z,99896.05
2023-02-14T17:14:11.751Z,99898.80
2023-02-14T17:16:42.226Z,99898.08
2023-02-14T17:19:13.665Z,99901.23
2023-02-14T17:21:44.175Z,99896.23
2023-02-14T17:24:14.584Z,99908.00
2023-02-14T17:26:45.571Z,99911.40
2023-02-14T17:29:16.046Z,99916.44
2023-02-14T17:31:46.433Z,99920.39
2023-02-14T17:34:17.047Z,99920.73
2023-02-14T17:36:47.305Z,99926.90
2023-02-14T17:39:19.689Z,99924.27
2023-02-14T17:41:50.646Z,99921.50
2023-02-14T17:44:20.996Z,99928.46
2023-02-14T17:46:53.346Z,99927.31
2023-02-14T17:49:23.678Z,99924.94
2023-02-14T17:51:54.615Z,99930.09
2023-02-14T17:54:25.637Z,99928.98
2023-02-14T17:56:56.018Z,99928.71
2023-02-14T17:59:26.851Z,99930.30
2023-02-14T18:01:57.167Z,99928.50
2023-02-14T18:04:30.010Z,99926.52
2023-02-14T18:07:00.313Z,99923.45
2023-02-14T18:09:30.718Z,99921.21
2023-02-14T18:12:01.155Z,99917.49
2023-02-14T18:14:31.495Z,99913.72
2023-02-14T18:17:01.815Z,99913.44
2023-02-14T18:19:32.433Z,99908.66
2023-02-14T18:22:02.778Z,99907.45
2023-02-14T18:24:33.129Z,99905.15
2023-02-14T18:27:05.457Z,99904.07
2023-02-14T18:29:36.303Z,99902.31
2023-02-14T18:32:07.028Z,99894.92
2023-02-14T18:34:39.453Z,99898.95
2023-02-14T18:37:09.726Z,99900.32
2023-02-14T18:39:40.563Z,99902.12
2023-02-14T18:42:10.965Z,99899.14
2023-02-14T18:44:41.415Z,99896.95
2023-02-14T18:47:12.301Z,99897.66
2023-02-14T18:49:42.770Z,99891.34
2023-02-14T18:52:13.102Z,99892.38
2023-02-14T18:54:43.706Z,99889.59
2023-02-14T18:57:13.969Z,99890.09
2023-02-14T18:59:45.055Z,99883.85
2023-02-14T19:02:15.316Z,99878.52
2023-02-14T19:04:45.749Z,99877.05
2023-02-14T19:07:16.028Z,99879.98
2023-02-14T19:09:46.636Z,99877.58
2023-02-14T19:12:16.928Z,99872.23
2023-02-14T19:14:47.292Z,99867.71
2023-02-14T19:17:18.223Z,99866.02
2023-02-14T19:19:48.628Z,99862.74
2023-02-14T19:22:18.959Z,99859.47
2023-02-14T19:24:49.526Z,99851.63
2023-02-14T19:27:21.476Z,99853.33
2023-02-14T19:29:51.893Z,99851.01
2023-02-14T19:32:22.336Z,99854.94
2023-02-14T19:34:52.684Z,99856.81
2023-02-14T19:37:23.220Z,99858.52
2023-02-14T19:39:53.835Z,99854.50
2023-02-14T19:42:24.187Z,99854.55
2023-02-14T19:44:54.693Z,99855.36
2023-02-14T19:47:39.891Z,99856.27
2023-02-14T19:50:17.637Z,99853.05
2023-02-14T19:52:47.999Z,99851.85
2023-02-14T19:55:25.701Z,99851.71
2023-02-14T19:57:57.519Z,99851.86
2023-02-14T20:00:27.826Z,99848.54
2023-02-14T20:02:58.204Z,99844.54
2023-02-14T20:05:29.319Z,99841.80
2023-02-14T20:07:59.609Z,99837.77
2023-02-14T20:10:30.147Z,99843.21
2023-02-14T20:13:00.437Z,99836.77
2023-02-14T20:15:31.521Z,99833.66
2023-02-14T20:18:02.235Z,99833.85
2023-02-14T20:20:52.722Z,99832.63
2023-02-14T20:23:23.187Z,99831.17
2023-02-14T20:25:53.591Z,99827.41
2023-02-14T20:28:23.851Z,99828.60
2023-02-14T20:30:54.351Z,99829.36
2023-02-14T20:33:24.861Z,99831.88
2023-02-14T20:35:55.351Z,99827.89
2023-02-14T20:38:25.746Z,99825.96
2023-02-14T20:40:56.191Z,99827.88
2023-02-14T20:43:27.194Z,99826.66
2023-02-14T20:46:01.583Z,99823.39
2023-02-14T20:48:32.025Z,99817.95
2023-02-14T20:51:11.961Z,99816.53
2023-02-14T20:53:43.334Z,99813.21
2023-02-14T20:56:14.389Z,99818.34
2023-02-14T20:58:44.958Z,99810.70
2023-02-14T21:01:16.933Z,99808.13
2023-02-14T21:03:50.790Z,99808.31
2023-02-14T21:06:23.349Z,99805.34
2023-02-14T21:08:54.166Z,99805.27
2023-02-14T21:11:26.771Z,99803.95
2023-02-14T21:13:59.728Z,99802.42
2023-02-14T21:16:30.826Z,99796.38
2023-02-14T21:19:01.824Z,99797.77
2023-02-14T21:21:34.747Z,99799.48
2023-02-14T21:24:07.269Z,99799.84
2023-02-14T21:26:37.867Z,99796.21
2023-02-14T21:29:08.624Z,99792.34
2023-02-14T21:31:39.677Z,99797.28
2023-02-14T21:34:10.277Z,99793.04
2023-02-14T21:36:41.419Z,99791.30
2023-02-14T21:39:11.778Z,99786.06
2023-02-14T21:41:42.530Z,99785.00
2023-02-14T21:44:33.151Z,99781.44
2023-02-14T21:47:03.484Z,99778.86
2023-02-14T21:49:51.641Z,99775.75
2023-02-14T21:52:22.139Z,99774.52
2023-02-14T21:54:52.769Z,99772.36
2023-02-14T21:57:23.863Z,99772.64
2023-02-14T21:59:54.174Z,99772.02
2023-02-14T22:02:24.574Z,99767.35
2023-02-14T22:04:55.229Z,99766.54
2023-02-14T22:07:25.654Z,99763.19
2023-02-14T22:09:56.080Z,99761.67
2023-02-14T22:12:26.370Z,99764.13
2023-02-14T22:15:00.106Z,99763.52
2023-02-14T22:17:30.408Z,99760.34
2023-02-14T22:20:00.714Z,99757.96
2023-02-14T22:22:31.068Z,99763.68
2023-02-14T22:25:01.406Z,99763.48
2023-02-14T22:27:31.707Z,99766.96
2023-02-14T22:30:02.060Z,99764.72
2023-02-14T22:32:32.379Z,99763.70
2023-02-14T22:35:03.146Z,99761.04
2023-02-14T22:37:33.416Z,99759.56
2023-02-14T22:40:04.063Z,99757.95
2023-02-14T22:42:34.823Z,99754.08
2023-02-14T22:45:05.224Z,99753.27
2023-02-14T22:47:35.521Z,99753.58
2023-02-14T22:50:06.260Z,99746.77
2023-02-14T22:52:37.657Z,99745.88
2023-02-14T22:55:10.048Z,99748.59
2023-02-14T22:57:40.368Z,99751.72
2023-02-14T23:00:12.334Z,99748.93
2023-02-14T23:02:42.665Z,99747.22
2023-02-14T23:05:13.033Z,99749.91
2023-02-14T23:07:43.334Z,99747.23
2023-02-14T23:10:13.973Z,99748.36
2023-02-14T23:13:01.503Z,99747.11
2023-02-14T23:15:49.479Z,99748.33
2023-02-14T23:18:37.442Z,99749.50
2023-02-14T23:21:29.365Z,99748.61
2023-02-14T23:23:59.725Z,99744.61
2023-02-14T23:26:30.095Z,99746.09
2023-02-14T23:29:00.874Z,99748.25
2023-02-14T23:31:31.239Z,99751.82
2023-02-14T23:34:01.594Z,99749.05
2023-02-14T23:36:33.076Z,99751.27
2023-02-14T23:39:03.393Z,99752.27
2023-02-14T23:41:48.401Z,99751.55
2023-02-14T23:44:20.271Z,99752.48
2023-02-14T23:46:51.656Z,99754.75
2023-02-14T23:49:22.532Z,99756.85
2023-02-14T23:51:53.906Z,99754.48
2023-02-14T23:54:25.743Z,99749.56
2023-02-14T23:56:57.412Z,99745.96
2023-02-14T23:59:27.893Z,99740.34
